Thunder radar more information blitzortung!


Löydät sääaseman tiedot myös:

European Weather Network

Finland Weather Exchange

Weather Underground

AWEKAS



Weather Underground säähistoriasivu

Päivittäin yhteenveto Elokuu 26, 2017 Yksiköt:  Englantilaiset    Metriset   Molemmat
« Edellinen Päivä
Seuraava Päivä »
Päivittäin Viikoittain Kuukausittain Vuosittain Mukautettu
  Korkea: Matala: Keskiarvo:
Lämpötila: TemperatureC °F 7.0 °F 8.9 °F
Kastepiste: DewpointC °F 6.3 °F 7.1 °F
Kosteus: Humidity % 73 % 88 %
Tuulen nopeus: WindSpeedKMH mph 0.0 mph 1.8 mph
Tuulenpuuska: WindSpeedGustKMH mph - -
Tuuli:- - NW
Ilmanpaine: PressurehPa in 1002.6 in -
Sade: 0.0 in    
Historical Graphs
 
 
Taulukkotiedot Elokuu 26, 2017
Aika Lämpötila Kastepiste Ilmanpaine Tuuli Tuulen nopeus Tuulenpuuska Kosteus Sademäärä (tunneittain)
TemperatureC °F DewpointC °F PressurehPa in Calm     Humidity % HourlyPrecipMM in
00:00 7.3 °F 6.5 °F 1002.9 in SSW 1.6 mph 6.4 mph 95 % 0.0 in
00:15 7.2 °F 6.6 °F 1002.9 in Calm   6.4 mph 96 % 0.0 in
00:30 7.2 °F 6.6 °F 1002.6 in Calm   4.8 mph 96 % 0.0 in
00:45 7.2 °F 6.6 °F 1002.6 in Calm   4.8 mph 96 % 0.0 in
01:00 7.2 °F 6.6 °F 1002.6 in Calm   4.8 mph 96 % 0.0 in
01:15 7.2 °F 6.6 °F 1002.6 in Calm   3.2 mph 96 % 0.0 in
01:30 7.1 °F 6.5 °F 1002.6 in Calm   3.2 mph 96 % 0.0 in
01:45 7.1 °F 6.5 °F 1002.6 in Calm     96 % 0.0 in
02:00 7.1 °F 6.5 °F 1002.6 in Calm     96 % 0.0 in
02:15 7.2 °F 6.6 °F 1002.6 in Calm     96 % 0.0 in
02:30 7.2 °F 6.6 °F 1002.6 in Calm     96 % 0.0 in
02:45 7.1 °F 6.5 °F 1002.6 in Calm     96 % 0.0 in
03:00 7.0 °F 6.6 °F 1002.6 in Calm   3.2 mph 97 % 0.0 in
03:15 7.2 °F 6.8 °F 1002.6 in Calm     97 % 0.0 in
03:30 7.4 °F 6.9 °F 1002.6 in Calm     97 % 0.0 in
03:45 7.4 °F 7.0 °F 1002.6 in Calm     97 % 0.0 in
04:00 7.4 °F 6.9 °F 1002.6 in Calm     97 % 0.0 in
04:15 7.3 °F 6.8 °F 1002.6 in Calm     97 % 0.0 in
04:30 7.2 °F 6.7 °F 1002.6 in Calm     97 % 0.0 in
04:45 7.1 °F 6.7 °F 1002.6 in Calm   1.6 mph 97 % 0.0 in
05:00 7.3 °F 6.8 °F 1002.6 in Calm     97 % 0.0 in
05:15 7.4 °F 6.9 °F 1002.6 in Calm     97 % 0.0 in
05:30 7.4 °F 7.0 °F 1002.6 in Calm   3.2 mph 97 % 0.0 in
05:45 7.6 °F 7.1 °F 1002.6 in Calm   3.2 mph 97 % 0.0 in
06:00 7.6 °F 7.2 °F 1002.6 in Calm   4.8 mph 97 % 0.0 in
06:30 7.6 °F 7.1 °F 1002.6 in Calm   8.0 mph 97 % 0.0 in
07:00 7.3 °F 6.9 °F 1002.9 in Calm   4.8 mph 97 % 0.0 in
07:15 7.2 °F 6.8 °F 1002.9 in Calm   6.4 mph 97 % 0.0 in
07:30 7.2 °F 6.8 °F 1002.9 in Calm   3.2 mph 97 % 0.0 in
07:45 7.3 °F 6.8 °F 1003.3 in Calm   4.8 mph 97 % 0.0 in
08:00 7.4 °F 7.0 °F 1003.3 in West 1.6 mph 9.7 mph 97 % 0.0 in
08:15 7.7 °F 7.3 °F 1003.6 in WNW 1.6 mph 8.0 mph 97 % 0.0 in
08:30 7.8 °F 7.2 °F 1003.6 in NW 1.6 mph 14.5 mph 96 % 0.0 in
08:45 7.9 °F 7.2 °F 1003.6 in NW 1.6 mph 11.3 mph 95 % 0.0 in
09:00 8.2 °F 7.4 °F 1003.9 in NW 1.6 mph 8.0 mph 95 % 0.0 in
09:15 8.4 °F 7.5 °F 1003.6 in Calm   4.8 mph 94 % 0.0 in
09:30 8.7 °F 7.4 °F 1003.9 in NW 1.6 mph 8.0 mph 92 % 0.0 in
09:45 9.1 °F 7.6 °F 1003.9 in WNW 4.8 mph 12.9 mph 90 % 0.0 in
10:00 9.3 °F 7.4 °F 1004.3 in NW 3.2 mph 11.3 mph 88 % 0.0 in
10:15 9.5 °F 7.6 °F 1004.3 in NW 3.2 mph 9.7 mph 88 % 0.0 in
10:30 9.7 °F 7.3 °F 1004.3 in NW 4.8 mph 17.7 mph 85 % 0.0 in
10:45 9.8 °F 7.1 °F 1004.3 in NW 4.8 mph 12.9 mph 83 % 0.0 in
11:00 10.4 °F 7.6 °F 1004.3 in NW 3.2 mph 9.7 mph 83 % 0.0 in
11:15 10.5 °F 6.8 °F 1004.3 in NW 6.4 mph 17.7 mph 78 % 0.0 in
11:30 10.5 °F 7.0 °F 1004.6 in NW 4.8 mph 14.5 mph 79 % 0.0 in
11:45 10.7 °F 6.6 °F 1004.6 in NW 8.0 mph 20.9 mph 76 % 0.0 in
12:00 10.8 °F 6.8 °F 1004.6 in NW 9.7 mph 19.3 mph 76 % 0.0 in
12:15 11.4 °F 7.4 °F 1005.0 in WNW 6.4 mph 19.3 mph 76 % 0.0 in
12:30 11.1 °F 6.5 °F 1005.0 in NW 8.0 mph 25.7 mph 73 % 0.0 in
12:45 11.3 °F 6.9 °F 1005.3 in NW 8.0 mph 22.5 mph 74 % 0.0 in
13:00 11.5 °F 6.8 °F 1005.3 in NNW 4.8 mph 12.9 mph 73 % 0.0 in
13:15 11.1 °F 6.6 °F 1005.6 in NW 4.8 mph 14.5 mph 74 % 0.0 in
13:30 11.0 °F 6.3 °F 1006.0 in NW 4.8 mph 19.3 mph 73 % 0.0 in
13:45 11.2 °F 6.7 °F 1006.0 in NW 4.8 mph 16.1 mph 74 % 0.0 in
14:00 11.0 °F 7.7 °F 1006.0 in NNW 4.8 mph 12.9 mph 80 % 0.0 in
14:15 10.9 °F 7.3 °F 1006.3 in NW 8.0 mph 19.3 mph 78 % 0.0 in
14:30 11.3 °F 7.1 °F 1006.3 in NW 6.4 mph 20.9 mph 75 % 0.0 in
14:45 11.6 °F 7.5 °F 1006.3 in NW 4.8 mph 19.3 mph 76 % 0.0 in
15:00 11.4 °F 7.6 °F 1006.3 in NW 4.8 mph 20.9 mph 77 % 0.0 in
15:15 11.0 °F 7.9 °F 1006.7 in NNW 3.2 mph 11.3 mph 81 % 0.0 in
15:30 10.5 °F 7.6 °F 1007.0 in NW 4.8 mph 14.5 mph 82 % 0.0 in
15:45 10.4 °F 7.9 °F 1007.0 in WNW 3.2 mph 11.3 mph 84 % 0.0 in
16:00 10.5 °F 7.9 °F 1007.3 in NW 1.6 mph 9.7 mph 84 % 0.0 in
16:15 10.5 °F 8.1 °F 1007.3 in NW 1.6 mph 11.3 mph 85 % 0.0 in
16:30 10.5 °F 7.7 °F 1007.3 in NW 3.2 mph 11.3 mph 83 % 0.0 in
16:45 10.6 °F 7.8 °F 1007.7 in NW 1.6 mph 9.7 mph 83 % 0.0 in
17:00 10.7 °F 7.7 °F 1007.7 in NW 1.6 mph 12.9 mph 82 % 0.0 in
17:15 10.5 °F 7.9 °F 1007.7 in North 1.6 mph 6.4 mph 84 % 0.0 in
17:30 10.6 °F 8.1 °F 1008.0 in Calm   4.8 mph 85 % 0.0 in
17:45 10.2 °F 8.3 °F 1008.4 in Calm   3.2 mph 88 % 0.0 in
18:00 10.1 °F 8.2 °F 1008.4 in NW 1.6 mph 6.4 mph 88 % 0.0 in
18:15 10.2 °F 9.0 °F 1008.4 in Calm   8.0 mph 92 % 0.0 in
18:30 10.2 °F 7.9 °F 1008.7 in NNW 1.6 mph 9.7 mph 86 % 0.0 in
18:45 10.0 °F 8.1 °F 1008.7 in WNW 3.2 mph 9.7 mph 88 % 0.0 in
19:00 9.8 °F 7.9 °F 1008.7 in Calm   4.8 mph 88 % 0.0 in
19:15 9.7 °F 8.1 °F 1009.0 in Calm   3.2 mph 90 % 0.0 in
19:30 9.7 °F 8.1 °F 1009.0 in Calm   1.6 mph 90 % 0.0 in
19:45 9.7 °F 8.2 °F 1009.0 in Calm     90 % 0.0 in
20:00 9.6 °F 7.8 °F 1009.0 in Calm   3.2 mph 89 % 0.0 in
20:15 9.3 °F 7.6 °F 1009.0 in Calm     89 % 0.0 in
20:30 9.2 °F 7.7 °F 1009.4 in Calm   1.6 mph 90 % 0.0 in
20:45 9.1 °F 7.5 °F 1009.4 in Calm     90 % 0.0 in
21:00 8.9 °F 7.3 °F 1009.4 in Calm   3.2 mph 90 % 0.0 in
21:15 8.9 °F 7.2 °F 1009.4 in WNW 1.6 mph 6.4 mph 89 % 0.0 in
21:45 8.8 °F 7.1 °F 1009.7 in Calm   4.8 mph 89 % 0.0 in
22:00 8.8 °F 7.2 °F 1009.7 in Calm   6.4 mph 90 % 0.0 in
22:15 8.7 °F 7.1 °F 1009.7 in Calm   3.2 mph 90 % 0.0 in
22:30 8.4 °F 7.1 °F 1009.7 in Calm   1.6 mph 91 % 0.0 in
22:45 8.5 °F 7.1 °F 1010.0 in WNW 1.6 mph 9.7 mph 91 % 0.0 in
23:00 8.8 °F 7.3 °F 1010.0 in NW 1.6 mph 8.0 mph 90 % 0.0 in
23:15 8.8 °F 7.2 °F 1010.0 in Calm   3.2 mph 90 % 0.0 in
23:30 8.6 °F 7.0 °F 1010.0 in Calm   4.8 mph 90 % 0.0 in
23:45 8.2 °F 6.8 °F 1010.0 in Calm   3.2 mph 91 % 0.0 in
Esan sääasema
Terveisin Weather Underground - 2.75 mb

Alkuperäinen skripti  Jim McMurry - jmcmurry@mwt.net Sovitettu myös templatelle  Wim van der Kuil - Leuven-Template.eu

Laitteet joita käytämme:

Sääasema
Davis VP2

Sääasemaohjelma
Cumulus

Sääaseman tietokone
Asus EeePC

Palveluntarjoaja
Suncomet

Davis VP2

Cumulus

Asus EeePC

Suncomet